createdAt,value
2019-04-26T00:04:57.812Z,10.10
2019-04-26T00:10:01.241Z,10.00
2019-04-26T00:15:16.414Z,10.00
2019-04-26T00:20:19.129Z,9.90
2019-04-26T00:25:20.502Z,10.00
2019-04-26T00:30:21.859Z,9.90
2019-04-26T00:35:23.266Z,9.90
2019-04-26T00:40:24.874Z,9.90
2019-04-26T00:45:31.613Z,9.80
2019-04-26T00:50:34.424Z,9.80
2019-04-26T00:55:36.729Z,9.70
2019-04-26T01:00:38.375Z,9.70
2019-04-26T01:06:00.437Z,9.70
2019-04-26T01:11:01.836Z,9.70
2019-04-26T01:16:03.173Z,9.70
2019-04-26T01:21:07.538Z,9.70
2019-04-26T01:26:14.651Z,9.70
2019-04-26T01:31:16.285Z,9.70
2019-04-26T01:36:18.053Z,9.70
2019-04-26T01:41:30.842Z,9.70
2019-04-26T01:46:42.331Z,9.70
2019-04-26T01:52:04.496Z,9.80
2019-04-26T01:57:06.219Z,9.80
2019-04-26T02:02:25.577Z,9.80
2019-04-26T02:07:37.847Z,9.80
2019-04-26T02:12:43.488Z,9.80
2019-04-26T02:17:48.338Z,9.80
2019-04-26T02:23:03.719Z,9.80
2019-04-26T02:28:05.035Z,9.80
2019-04-26T02:33:06.413Z,9.70
2019-04-26T02:38:07.726Z,9.70
2019-04-26T02:43:10.068Z,9.60
2019-04-26T02:48:29.078Z,9.60
2019-04-26T02:53:38.699Z,9.50
2019-04-26T02:58:57.778Z,9.50
2019-04-26T03:03:59.264Z,9.40
2019-04-26T03:09:06.468Z,9.40
2019-04-26T03:14:14.247Z,9.40
2019-04-26T03:19:31.458Z,9.40
2019-04-26T03:24:41.207Z,9.30
2019-04-26T03:30:21.577Z,9.30
2019-04-26T03:35:56.471Z,9.40
2019-04-26T03:41:17.899Z,9.40
2019-04-26T03:46:24.905Z,9.30
2019-04-26T03:51:52.563Z,9.30
2019-04-26T03:57:04.264Z,9.30
2019-04-26T04:02:15.577Z,9.20
2019-04-26T04:07:36.184Z,9.20
2019-04-26T04:12:38.456Z,9.10
2019-04-26T04:17:50.396Z,9.10
2019-04-26T04:23:06.489Z,9.00
2019-04-26T04:28:40.466Z,9.00
2019-04-26T04:33:57.424Z,9.00
2019-04-26T04:39:12.896Z,9.00
2019-04-26T04:44:35.815Z,9.00
2019-04-26T04:50:02.955Z,8.90
2019-04-26T04:55:57.643Z,8.90
2019-04-26T05:01:26.540Z,8.90
2019-04-26T05:07:08.651Z,8.90
2019-04-26T05:12:24.350Z,8.90
2019-04-26T05:17:53.672Z,8.90
2019-04-26T05:23:34.689Z,8.90
2019-04-26T05:29:36.891Z,9.00
2019-04-26T05:34:49.349Z,9.10
2019-04-26T05:40:15.628Z,9.20
2019-04-26T05:46:06.979Z,9.30
2019-04-26T05:52:11.078Z,9.40
2019-04-26T05:57:34.916Z,9.40
2019-04-26T06:03:11.099Z,9.40
2019-04-26T06:08:44.672Z,9.40
2019-04-26T06:14:16.595Z,9.40
2019-04-26T06:19:43.276Z,9.40
2019-04-26T06:24:58.330Z,9.40
2019-04-26T06:30:21.788Z,9.40
2019-04-26T06:35:29.213Z,9.50
2019-04-26T06:40:50.715Z,9.60
2019-04-26T06:46:08.561Z,9.70
2019-04-26T06:51:30.578Z,9.90
2019-04-26T06:56:57.443Z,10.10
2019-04-26T07:02:42.134Z,10.30
2019-04-26T07:08:24.702Z,10.50
2019-04-26T07:14:15.203Z,10.70
2019-04-26T07:19:29.900Z,10.90
2019-04-26T07:25:14.237Z,11.10
2019-04-26T07:30:41.036Z,11.30
2019-04-26T07:36:16.277Z,11.50
2019-04-26T07:42:07.379Z,11.80
2019-04-26T07:47:32.449Z,12.10
2019-04-26T07:53:20.470Z,12.50
2019-04-26T07:59:07.299Z,12.80
2019-04-26T08:04:16.411Z,13.10
2019-04-26T08:09:26.941Z,13.40
2019-04-26T08:14:34.001Z,13.70
2019-04-26T08:19:41.083Z,13.90
2019-04-26T08:24:47.721Z,14.00
2019-04-26T08:29:58.801Z,14.20
2019-04-26T08:35:15.127Z,14.20
2019-04-26T08:40:16.305Z,14.40
2019-04-26T08:45:27.224Z,14.50
2019-04-26T08:50:33.305Z,14.60
2019-04-26T08:55:37.970Z,14.90
2019-04-26T09:01:02.940Z,15.00
2019-04-26T09:06:27.525Z,15.20
2019-04-26T09:11:36.585Z,15.40
2019-04-26T09:16:49.791Z,15.50
2019-04-26T09:21:47.476Z,15.70
2019-04-26T09:26:56.853Z,15.80
2019-04-26T09:32:12.115Z,16.00
2019-04-26T09:37:13.981Z,16.20
2019-04-26T09:42:21.117Z,16.40
2019-04-26T09:47:33.987Z,16.40
2019-04-26T09:52:38.232Z,16.50
2019-04-26T09:57:40.023Z,16.70
2019-04-26T10:02:41.626Z,16.80
2019-04-26T10:07:42.979Z,17.10
2019-04-26T10:13:06.134Z,17.30
2019-04-26T10:18:08.235Z,17.40
2019-04-26T10:23:09.984Z,17.40
2019-04-26T10:28:11.743Z,17.50
2019-04-26T10:33:16.299Z,17.60
2019-04-26T10:38:19.419Z,17.70
2019-04-26T10:43:23.174Z,17.60
2019-04-26T10:48:26.394Z,17.80
2019-04-26T10:53:44.520Z,17.80
2019-04-26T10:58:49.604Z,17.80
2019-04-26T11:03:51.034Z,18.00
2019-04-26T11:08:52.685Z,18.10
2019-04-26T11:13:57.805Z,18.20
2019-04-26T11:19:01.094Z,18.20
2019-04-26T11:24:02.829Z,18.20
2019-04-26T11:29:06.060Z,18.00
2019-04-26T11:34:07.367Z,18.10
2019-04-26T11:39:10.964Z,18.20
2019-04-26T11:44:13.015Z,18.40
2019-04-26T11:49:14.461Z,18.60
2019-04-26T11:54:17.067Z,18.70
2019-04-26T11:59:19.113Z,18.60
2019-04-26T12:04:28.280Z,18.60
2019-04-26T12:09:31.539Z,18.50
2019-04-26T12:14:33.580Z,18.30
2019-04-26T12:19:35.859Z,18.20
2019-04-26T12:24:37.228Z,18.10
2019-04-26T12:29:38.549Z,18.10
2019-04-26T12:34:41.644Z,18.30
2019-04-26T12:39:42.994Z,18.60
2019-04-26T12:44:46.498Z,18.80
2019-04-26T12:49:47.892Z,19.00
2019-04-26T12:54:49.222Z,19.10
2019-04-26T12:59:50.483Z,19.20
2019-04-26T13:04:52.309Z,19.20
2019-04-26T13:10:13.898Z,19.10
2019-04-26T13:16:00.582Z,19.20
2019-04-26T13:21:02.983Z,19.20
2019-04-26T13:26:05.361Z,19.30
2019-04-26T13:31:06.664Z,19.40
2019-04-26T13:36:08.632Z,19.50
2019-04-26T13:41:11.374Z,19.40
2019-04-26T13:46:23.213Z,19.30
2019-04-26T13:51:26.490Z,19.20
2019-04-26T13:56:27.871Z,19.10
2019-04-26T14:01:29.245Z,19.10
2019-04-26T14:06:32.267Z,19.20
2019-04-26T14:11:35.167Z,19.20
2019-04-26T14:16:36.559Z,19.20
2019-04-26T14:21:41.890Z,19.20
2019-04-26T14:26:45.108Z,19.20
2019-04-26T14:31:47.319Z,19.20
2019-04-26T14:36:51.066Z,19.30
2019-04-26T14:41:57.025Z,19.20
2019-04-26T14:46:56.811Z,19.00
2019-04-26T14:51:58.374Z,18.90
2019-04-26T14:57:07.309Z,18.70
2019-04-26T15:02:10.344Z,18.60
2019-04-26T15:07:12.224Z,18.60
2019-04-26T15:12:15.779Z,18.60
2019-04-26T15:17:19.783Z,18.50
2019-04-26T15:22:20.795Z,18.50
2019-04-26T15:27:23.544Z,18.40
2019-04-26T15:32:27.990Z,18.40
2019-04-26T15:37:28.751Z,18.40
2019-04-26T15:42:32.222Z,18.50
2019-04-26T15:47:50.224Z,18.50
2019-04-26T15:52:52.517Z,18.50
2019-04-26T15:57:54.046Z,18.40
2019-04-26T16:02:58.584Z,18.20
2019-04-26T16:08:03.195Z,18.10
2019-04-26T16:13:16.139Z,18.00
2019-04-26T16:18:05.238Z,17.90
2019-04-26T16:23:07.920Z,17.90
2019-04-26T16:28:17.835Z,18.00
2019-04-26T16:33:21.064Z,17.90
2019-04-26T16:38:33.837Z,18.00
2019-04-26T16:43:40.323Z,17.90
2019-04-26T16:48:38.810Z,17.90
2019-04-26T16:58:45.553Z,18.10
2019-04-26T17:03:48.290Z,18.00
2019-04-26T17:08:57.664Z,17.90
2019-04-26T17:09:38.414Z,18.00
2019-04-26T17:13:56.727Z,17.90
2019-04-26T17:18:59.597Z,17.90
2019-04-26T17:24:13.559Z,17.70
2019-04-26T17:29:15.246Z,17.60
2019-04-26T17:34:17.247Z,17.40
2019-04-26T17:39:18.742Z,17.30
2019-04-26T17:44:26.297Z,17.20
2019-04-26T17:49:27.159Z,17.20
2019-04-26T17:54:43.766Z,17.10
2019-04-26T17:59:33.472Z,17.00
2019-04-26T18:04:37.067Z,17.00
2019-04-26T18:09:43.215Z,16.90
2019-04-26T18:14:41.432Z,16.80
2019-04-26T18:25:11.357Z,16.70
2019-04-26T18:30:13.985Z,16.60
2019-04-26T18:35:16.948Z,16.50
2019-04-26T18:40:20.760Z,16.40
2019-04-26T18:45:28.892Z,16.40
2019-04-26T18:50:32.515Z,16.30
2019-04-26T18:55:49.974Z,16.10
2019-04-26T19:00:53.008Z,16.00
2019-04-26T19:05:58.458Z,15.80
2019-04-26T19:11:03.100Z,15.70
2019-04-26T19:16:21.568Z,15.70
2019-04-26T19:21:24.990Z,15.60
2019-04-26T19:26:33.046Z,15.50
2019-04-26T19:31:30.348Z,15.40
2019-04-26T19:36:32.925Z,15.30
2019-04-26T19:41:34.605Z,15.20
2019-04-26T19:46:43.752Z,15.00
2019-04-26T19:52:03.808Z,14.90
2019-04-26T19:57:07.327Z,14.80
2019-04-26T20:02:08.982Z,14.70
2019-04-26T20:07:10.449Z,14.60
2019-04-26T20:12:13.058Z,14.50
2019-04-26T20:17:20.059Z,14.50
2019-04-26T20:22:22.051Z,14.40
2019-04-26T20:27:24.589Z,14.30
2019-04-26T20:32:32.718Z,14.20
2019-04-26T20:37:34.106Z,14.10
2019-04-26T20:42:35.403Z,14.00
2019-04-26T20:47:37.619Z,13.90
2019-04-26T20:52:38.907Z,13.80
2019-04-26T20:57:42.765Z,13.70
2019-04-26T21:02:44.149Z,13.70
2019-04-26T21:07:49.387Z,13.60
2019-04-26T21:12:52.253Z,13.50
2019-04-26T21:17:51.999Z,13.30
2019-04-26T21:28:22.282Z,13.10
2019-04-26T21:33:28.690Z,13.00
2019-04-26T21:38:38.638Z,12.90
2019-04-26T21:43:39.896Z,12.70
2019-04-26T21:48:41.938Z,12.70
2019-04-26T21:53:45.323Z,12.60
2019-04-26T21:58:47.037Z,12.50
2019-04-26T22:03:54.174Z,12.40
2019-04-26T22:08:59.329Z,12.30
2019-04-26T22:14:03.051Z,12.20
2019-04-26T22:19:06.721Z,12.10
2019-04-26T22:24:15.614Z,12.00
2019-04-26T22:29:17.185Z,12.00
2019-04-26T22:34:18.706Z,11.90
2019-04-26T22:39:20.382Z,11.80
2019-04-26T22:44:31.205Z,11.80
2019-04-26T22:49:36.830Z,11.70
2019-04-26T22:54:37.693Z,11.60
2019-04-26T22:59:43.322Z,11.50
2019-04-26T23:04:43.456Z,11.40
2019-04-26T23:09:51.908Z,11.40
2019-04-26T23:14:56.666Z,11.30
2019-04-26T23:19:59.962Z,11.20
2019-04-26T23:25:20.180Z,11.10
2019-04-26T23:30:23.086Z,11.00
2019-04-26T23:35:24.658Z,10.90
2019-04-26T23:40:28.923Z,10.90
2019-04-26T23:45:29.127Z,10.80
2019-04-26T23:50:31.328Z,10.70
2019-04-26T23:55:33.852Z,10.60
